createdAt,value
2023-05-21T00:01:16.536Z,17.54
2023-05-21T00:06:20.970Z,17.45
2023-05-21T00:11:24.198Z,17.37
2023-05-21T00:16:26.149Z,17.29
2023-05-21T00:21:28.219Z,17.26
2023-05-21T00:26:30.149Z,17.17
2023-05-21T00:31:32.498Z,17.07
2023-05-21T00:36:34.877Z,16.99
2023-05-21T00:41:38.321Z,16.95
2023-05-21T00:46:40.392Z,16.90
2023-05-21T00:51:45.202Z,16.89
2023-05-21T00:56:47.845Z,16.86
2023-05-21T01:05:15.619Z,16.82
2023-05-21T01:10:17.916Z,16.81
2023-05-21T01:15:20.522Z,16.76
2023-05-21T01:20:24.859Z,16.69
2023-05-21T01:25:27.103Z,16.62
2023-05-21T01:30:29.414Z,16.56
2023-05-21T01:35:49.951Z,16.53
2023-05-21T01:41:10.390Z,16.45
2023-05-21T01:46:16.265Z,16.41
2023-05-21T01:51:21.949Z,16.39
2023-05-21T01:56:25.965Z,16.40
2023-05-21T02:01:30.724Z,16.35
2023-05-21T02:06:33.602Z,16.27
2023-05-21T02:11:35.839Z,16.18
2023-05-21T02:16:38.783Z,16.13
2023-05-21T02:21:41.573Z,16.06
2023-05-21T02:26:43.831Z,16.00
2023-05-21T02:31:45.870Z,15.98
2023-05-21T02:36:54.763Z,15.95
2023-05-21T02:41:58.601Z,15.88
2023-05-21T02:47:03.783Z,15.90
2023-05-21T02:52:06.183Z,15.85
2023-05-21T02:57:08.351Z,15.82
2023-05-21T03:02:10.754Z,15.83
2023-05-21T03:07:19.215Z,15.84
2023-05-21T03:12:21.390Z,15.83
2023-05-21T03:20:50.080Z,15.87
2023-05-21T03:25:52.076Z,15.89
2023-05-21T03:30:54.809Z,15.89
2023-05-21T03:36:23.060Z,15.90
2023-05-21T03:41:26.195Z,15.92
2023-05-21T03:46:34.798Z,15.88
2023-05-21T03:51:44.053Z,15.84
2023-05-21T03:56:50.371Z,15.83
2023-05-21T04:07:31.653Z,15.74
2023-05-21T04:12:37.215Z,15.75
2023-05-21T04:17:40.004Z,15.75
2023-05-21T04:23:20.053Z,15.75
2023-05-21T04:29:05.573Z,15.75
2023-05-21T04:34:48.554Z,15.76
2023-05-21T04:40:31.566Z,15.78
2023-05-21T04:45:33.744Z,15.79
2023-05-21T04:50:36.307Z,15.79
2023-05-21T04:55:40.060Z,15.78
2023-05-21T05:00:42.408Z,15.76
2023-05-21T05:05:44.695Z,15.72
2023-05-21T05:10:49.817Z,15.76
2023-05-21T05:15:55.660Z,15.79
2023-05-21T05:20:57.790Z,15.82
2023-05-21T05:25:59.621Z,15.80
2023-05-21T05:31:02.717Z,15.81
2023-05-21T05:36:05.310Z,15.83
2023-05-21T05:41:07.569Z,15.86
2023-05-21T05:46:09.960Z,15.85
2023-05-21T05:51:12.093Z,15.89
2023-05-21T05:56:14.340Z,15.93
2023-05-21T06:01:17.840Z,16.00
2023-05-21T06:06:20.690Z,16.07
2023-05-21T06:11:23.145Z,16.17
2023-05-21T06:16:25.155Z,16.24
2023-05-21T06:21:28.067Z,16.32
2023-05-21T06:26:30.869Z,16.39
2023-05-21T06:31:33.832Z,16.48
2023-05-21T06:36:36.013Z,16.59
2023-05-21T06:41:38.100Z,16.70
2023-05-21T06:46:57.925Z,16.92
2023-05-21T06:51:59.995Z,17.18
2023-05-21T06:57:02.615Z,17.51
2023-05-21T07:02:06.826Z,17.75
2023-05-21T07:07:11.891Z,17.99
2023-05-21T07:12:14.072Z,18.29
2023-05-21T07:17:16.540Z,18.54
2023-05-21T07:22:19.042Z,18.83
2023-05-21T07:27:25.700Z,19.11
2023-05-21T07:32:31.056Z,19.42
2023-05-21T07:37:33.357Z,19.64
2023-05-21T07:42:35.475Z,19.86
2023-05-21T07:47:38.520Z,20.09
2023-05-21T07:52:41.055Z,20.30
2023-05-21T07:57:43.345Z,20.41
2023-05-21T08:02:48.050Z,20.40
2023-05-21T08:07:51.125Z,20.39
2023-05-21T08:12:53.972Z,20.53
2023-05-21T08:17:57.127Z,20.55
2023-05-21T08:23:00.950Z,20.60
2023-05-21T08:28:05.956Z,20.72
2023-05-21T08:33:08.223Z,20.93
2023-05-21T08:38:10.416Z,21.01
2023-05-21T08:43:50.250Z,21.09
2023-05-21T08:48:55.857Z,21.13
2023-05-21T08:54:02.197Z,21.05
2023-05-21T08:59:04.390Z,21.04
2023-05-21T09:04:20.259Z,20.98
2023-05-21T09:09:34.253Z,21.04
2023-05-21T09:14:38.326Z,21.17
2023-05-21T09:20:14.877Z,21.45
2023-05-21T09:25:32.414Z,21.66
2023-05-21T09:30:54.166Z,21.79
2023-05-21T09:35:56.589Z,21.98
2023-05-21T09:41:05.568Z,22.06
2023-05-21T09:46:07.687Z,21.87
2023-05-21T09:51:17.461Z,21.98
2023-05-21T09:56:23.509Z,22.01
2023-05-21T10:01:26.166Z,21.80
2023-05-21T10:06:30.219Z,21.61
2023-05-21T10:11:32.704Z,21.56
2023-05-21T10:16:36.367Z,21.63
2023-05-21T10:21:40.178Z,21.67
2023-05-21T10:26:43.488Z,21.74
2023-05-21T10:31:49.935Z,21.99
2023-05-21T10:36:54.763Z,22.15
2023-05-21T10:42:32.041Z,22.12
2023-05-21T10:47:59.160Z,22.09
2023-05-21T10:53:25.892Z,22.11
2023-05-21T10:58:52.963Z,22.24
2023-05-21T11:03:56.009Z,21.88
2023-05-21T11:09:22.096Z,21.58
2023-05-21T11:14:40.551Z,21.50
2023-05-21T11:19:55.851Z,21.58
2023-05-21T11:25:02.257Z,21.83
2023-05-21T11:30:06.783Z,21.84
2023-05-21T11:35:09.262Z,21.79
2023-05-21T11:40:19.894Z,21.89
2023-05-21T11:45:29.631Z,21.82
2023-05-21T11:50:34.062Z,21.38
2023-05-21T11:55:43.583Z,21.04
2023-05-21T12:00:46.099Z,20.90
2023-05-21T12:05:49.559Z,20.60
2023-05-21T12:10:58.535Z,20.43
2023-05-21T12:16:00.813Z,20.26
2023-05-21T12:21:03.379Z,20.12
2023-05-21T12:26:05.842Z,20.15
2023-05-21T12:31:14.297Z,20.17
2023-05-21T12:36:27.837Z,20.28
2023-05-21T12:41:29.947Z,20.18
2023-05-21T12:46:32.215Z,19.98
2023-05-21T12:51:40.395Z,19.83
2023-05-21T12:56:46.080Z,19.79
2023-05-21T13:01:49.701Z,19.89
2023-05-21T13:06:51.709Z,19.83
2023-05-21T13:11:54.013Z,19.96
2023-05-21T13:16:56.204Z,20.12
2023-05-21T13:21:58.325Z,20.19
2023-05-21T13:27:00.411Z,20.18
2023-05-21T13:32:05.495Z,20.22
2023-05-21T13:37:07.763Z,20.28
2023-05-21T13:42:09.878Z,20.43
2023-05-21T13:47:12.238Z,20.48
2023-05-21T13:52:14.667Z,20.49
2023-05-21T13:57:16.813Z,20.56
2023-05-21T14:02:19.268Z,20.49
2023-05-21T14:07:22.250Z,20.46
2023-05-21T14:12:24.570Z,20.46
2023-05-21T14:17:26.774Z,20.48
2023-05-21T14:22:28.923Z,20.43
2023-05-21T14:27:31.126Z,20.32
2023-05-21T14:32:33.618Z,20.24
2023-05-21T14:37:35.737Z,20.27
2023-05-21T14:42:38.025Z,20.11
2023-05-21T14:47:40.307Z,20.12
2023-05-21T14:52:45.213Z,20.19
2023-05-21T14:57:47.612Z,20.24
2023-05-21T15:02:49.749Z,20.20
2023-05-21T15:07:52.199Z,20.11
2023-05-21T15:12:54.695Z,20.22
2023-05-21T15:17:57.829Z,20.21
2023-05-21T15:23:15.321Z,20.35
2023-05-21T15:28:19.871Z,20.52
2023-05-21T15:33:21.894Z,20.58
2023-05-21T15:38:24.005Z,20.53
2023-05-21T15:43:26.003Z,20.29
2023-05-21T15:48:28.176Z,20.03
2023-05-21T15:53:30.429Z,19.90
2023-05-21T15:58:32.818Z,19.95
2023-05-21T16:03:35.006Z,19.93
2023-05-21T16:08:37.768Z,19.68
2023-05-21T16:13:39.847Z,19.53
2023-05-21T16:18:42.018Z,19.46
2023-05-21T16:23:44.083Z,19.39
2023-05-21T16:28:46.431Z,19.44
2023-05-21T16:33:48.507Z,19.48
2023-05-21T16:38:50.749Z,19.56
2023-05-21T16:43:54.433Z,19.51
2023-05-21T16:48:56.603Z,19.48
2023-05-21T16:53:58.722Z,19.50
2023-05-21T16:59:01.003Z,19.62
2023-05-21T17:04:03.303Z,19.57
2023-05-21T17:09:05.734Z,19.62
2023-05-21T17:14:13.496Z,19.63
2023-05-21T17:19:19.825Z,19.47
2023-05-21T17:24:22.055Z,19.48
2023-05-21T17:29:24.189Z,19.45
2023-05-21T17:34:29.610Z,19.44
2023-05-21T17:39:31.946Z,19.36
2023-05-21T17:44:34.121Z,19.30
2023-05-21T17:49:36.421Z,19.21
2023-05-21T17:54:38.710Z,19.04
2023-05-21T17:59:45.100Z,18.98
2023-05-21T18:04:47.314Z,19.03
2023-05-21T18:09:49.784Z,19.01
2023-05-21T18:14:51.927Z,18.98
2023-05-21T18:19:56.747Z,18.89
2023-05-21T18:25:01.242Z,18.86
2023-05-21T18:30:06.610Z,18.74
2023-05-21T18:35:14.362Z,18.64
2023-05-21T18:40:18.575Z,18.64
2023-05-21T18:45:23.605Z,18.62
2023-05-21T18:50:25.995Z,18.60
2023-05-21T18:55:28.236Z,18.64
2023-05-21T19:00:30.666Z,18.73
2023-05-21T19:05:32.810Z,18.79
2023-05-21T19:10:35.341Z,18.85
2023-05-21T19:15:37.662Z,18.87
2023-05-21T19:20:40.169Z,18.90
2023-05-21T19:25:42.300Z,18.92
2023-05-21T19:30:44.634Z,18.94
2023-05-21T19:35:47.991Z,18.96
2023-05-21T19:40:50.220Z,19.01
2023-05-21T19:45:55.531Z,19.02
2023-05-21T19:50:57.879Z,19.02
2023-05-21T19:56:00.279Z,19.03
2023-05-21T20:01:03.642Z,19.03
2023-05-21T20:06:05.931Z,19.03
2023-05-21T20:11:08.166Z,19.03
2023-05-21T20:16:14.652Z,19.01
2023-05-21T20:21:17.872Z,18.99
2023-05-21T20:26:19.998Z,18.96
2023-05-21T20:31:22.692Z,18.97
2023-05-21T20:36:25.927Z,18.97
2023-05-21T20:41:37.419Z,18.96
2023-05-21T20:46:39.809Z,18.94
2023-05-21T20:51:42.488Z,18.96
2023-05-21T20:56:49.295Z,18.96
2023-05-21T21:41:26.613Z,19.48
2023-05-21T21:46:32.117Z,19.37
2023-05-21T21:51:35.128Z,19.25
2023-05-21T21:56:44.882Z,19.18
2023-05-21T22:01:47.877Z,19.11
2023-05-21T22:06:50.189Z,19.06
2023-05-21T22:11:53.546Z,19.02
2023-05-21T22:17:03.706Z,19.00
2023-05-21T22:22:12.471Z,18.97
2023-05-21T22:27:14.604Z,18.97
2023-05-21T22:32:16.938Z,18.98
2023-05-21T22:37:19.289Z,18.99
2023-05-21T22:42:21.945Z,19.00
2023-05-21T22:47:25.716Z,18.99
2023-05-21T22:52:40.319Z,18.99
2023-05-21T22:57:42.682Z,19.00
2023-05-21T23:02:53.807Z,19.01
2023-05-21T23:09:47.057Z,19.05
2023-05-21T23:14:49.037Z,19.05
2023-05-21T23:19:52.457Z,19.05
2023-05-21T23:24:54.928Z,19.05
2023-05-21T23:29:58.625Z,19.03
2023-05-21T23:35:00.729Z,19.01
2023-05-21T23:40:03.022Z,18.97
2023-05-21T23:45:11.460Z,18.96
2023-05-21T23:50:14.034Z,18.93
2023-05-21T23:55:19.275Z,18.89
